Terminal Aerodrome Forecast
Issued by NWS Mt. Holly, NJ

Home | Current Version | Previous Version | Text Only | Print | Product List | Glossary On
Versions: 1 2 3 4 5 6 7 8 9 10 11 12 13 14 15 16 17 18 19 20 21 22 23 24
000
FTUS41 KPHI 210500
TAFPHL
TAF
KPHL 210539Z 2106/2212 19004KT P6SM SCT060 BKN120
     FM211800 19006KT P6SM VCSH SCT040 BKN100
     FM212100 19006KT P6SM -SHRA BKN040 BKN100
     FM220000 15007KT 6SM SHRA SCT025 BKN040
      TEMPO 2202/2205 5SM SHRA BKN025=

USA.gov is the U.S. government's official web portal to all federal, state and local government web resources and services.